createdAt,value
2019-02-06T00:04:48.045Z,28.47
2019-02-06T00:07:28.559Z,24.73
2019-02-06T00:10:09.581Z,21.77
2019-02-06T00:12:50.463Z,24.40
2019-02-06T00:15:31.034Z,21.90
2019-02-06T00:18:11.786Z,24.57
2019-02-06T00:20:52.343Z,19.33
2019-02-06T00:23:32.740Z,18.03
2019-02-06T00:26:13.492Z,17.30
2019-02-06T00:28:54.566Z,19.10
2019-02-06T00:31:35.734Z,20.03
2019-02-06T00:34:16.673Z,17.10
2019-02-06T00:36:57.406Z,15.93
2019-02-06T00:39:38.306Z,23.57
2019-02-06T00:42:19.145Z,20.60
2019-02-06T00:45:00.112Z,18.73
2019-02-06T00:47:40.902Z,15.50
2019-02-06T00:50:21.700Z,16.37
2019-02-06T00:53:02.385Z,12.63
2019-02-06T00:55:43.332Z,13.67
2019-02-06T00:58:24.232Z,12.67
2019-02-06T01:01:05.252Z,18.47
2019-02-06T01:03:46.688Z,18.07
2019-02-06T01:06:27.288Z,14.30
2019-02-06T01:09:07.846Z,18.37
2019-02-06T01:11:49.092Z,11.13
2019-02-06T01:14:29.518Z,10.87
2019-02-06T01:17:10.660Z,10.87
2019-02-06T01:19:53.168Z,9.50
2019-02-06T01:22:34.141Z,14.30
2019-02-06T01:25:14.766Z,13.33
2019-02-06T01:27:55.210Z,12.73
2019-02-06T01:30:55.371Z,13.30
2019-02-06T01:33:35.977Z,8.77
2019-02-06T01:36:16.552Z,9.23
2019-02-06T01:38:57.516Z,10.27
2019-02-06T01:41:38.009Z,13.13
2019-02-06T01:44:19.172Z,10.03
2019-02-06T01:47:00.570Z,10.20
2019-02-06T01:49:41.300Z,7.73
2019-02-06T01:52:22.802Z,10.63
2019-02-06T01:55:04.009Z,7.93
2019-02-06T01:57:44.521Z,9.03
2019-02-06T02:00:25.521Z,7.70
2019-02-06T02:03:06.496Z,8.53
2019-02-06T02:05:47.514Z,11.20
2019-02-06T02:08:29.250Z,7.27
2019-02-06T02:11:10.476Z,8.60
2019-02-06T02:13:51.390Z,9.20
2019-02-06T02:16:32.742Z,10.67
2019-02-06T02:19:14.500Z,10.93
2019-02-06T02:21:55.358Z,8.40
2019-02-06T02:24:36.600Z,6.70
2019-02-06T02:27:17.574Z,7.10
2019-02-06T02:29:58.588Z,10.47
2019-02-06T02:32:39.678Z,6.80
2019-02-06T02:35:20.692Z,9.97
2019-02-06T02:38:01.882Z,7.20
2019-02-06T02:40:42.378Z,6.90
2019-02-06T02:43:23.318Z,7.63
2019-02-06T02:46:04.442Z,6.80
2019-02-06T02:48:45.445Z,7.17
2019-02-06T02:51:26.462Z,7.70
2019-02-06T02:54:07.520Z,7.40
2019-02-06T02:56:48.159Z,6.83
2019-02-06T02:59:28.945Z,7.13
2019-02-06T03:05:15.576Z,6.97
2019-02-06T03:07:56.478Z,6.57
2019-02-06T03:10:36.959Z,7.07
2019-02-06T03:13:18.030Z,6.77
2019-02-06T03:15:59.401Z,7.07
2019-02-06T03:18:40.302Z,7.27
2019-02-06T03:21:21.095Z,7.17
2019-02-06T03:24:01.986Z,8.73
2019-02-06T03:26:43.115Z,8.80
2019-02-06T03:29:24.074Z,7.10
2019-02-06T03:32:04.856Z,6.47
2019-02-06T03:34:45.450Z,6.90
2019-02-06T03:37:26.144Z,6.70
2019-02-06T03:40:06.978Z,9.00
2019-02-06T03:42:48.082Z,6.67
2019-02-06T03:45:29.332Z,5.90
2019-02-06T03:48:10.404Z,6.70
2019-02-06T03:50:51.359Z,6.67
2019-02-06T03:53:32.221Z,6.60
2019-02-06T03:56:13.070Z,6.43
2019-02-06T03:58:54.240Z,6.30
2019-02-06T04:01:34.962Z,6.90
2019-02-06T04:04:16.104Z,7.13
2019-02-06T04:07:00.976Z,6.40
2019-02-06T04:09:39.847Z,8.03
2019-02-06T04:12:20.778Z,6.40
2019-02-06T04:15:01.666Z,6.00
2019-02-06T04:17:42.483Z,6.40
2019-02-06T04:20:23.456Z,6.57
2019-02-06T04:23:04.282Z,6.27
2019-02-06T04:25:45.368Z,6.67
2019-02-06T04:28:26.164Z,6.47
2019-02-06T04:31:07.011Z,6.17
2019-02-06T04:33:47.915Z,5.97
2019-02-06T04:36:29.041Z,6.07
2019-02-06T04:39:10.021Z,5.93
2019-02-06T04:41:51.112Z,6.40
2019-02-06T04:44:31.961Z,6.20
2019-02-06T04:47:13.029Z,6.20
2019-02-06T04:49:56.047Z,6.90
2019-02-06T04:52:36.735Z,6.07
2019-02-06T04:55:17.718Z,5.60
2019-02-06T04:57:58.968Z,6.53
2019-02-06T05:00:39.887Z,5.87
2019-02-06T05:03:20.658Z,5.83
2019-02-06T05:06:01.946Z,6.30
2019-02-06T05:08:42.903Z,6.37
2019-02-06T05:11:23.948Z,20.37
2019-02-06T05:14:05.753Z,19.87
2019-02-06T05:16:46.422Z,19.17
2019-02-06T05:19:27.429Z,11.47
2019-02-06T05:22:09.909Z,15.00
2019-02-06T05:24:50.788Z,16.17
2019-02-06T05:27:31.842Z,15.10
2019-02-06T05:30:12.698Z,7.57
2019-02-06T05:32:53.548Z,6.83
2019-02-06T05:35:34.227Z,10.90
2019-02-06T05:38:14.801Z,11.77
2019-02-06T05:40:55.530Z,11.03
2019-02-06T05:43:36.394Z,7.90
2019-02-06T05:46:17.830Z,10.07
2019-02-06T05:48:58.635Z,7.00
2019-02-06T05:51:39.283Z,7.50
2019-02-06T05:54:20.342Z,10.87
2019-02-06T05:57:01.646Z,8.13
2019-02-06T05:59:42.633Z,7.93
2019-02-06T06:02:23.468Z,8.17
2019-02-06T06:05:04.752Z,6.97
2019-02-06T06:07:45.828Z,7.17
2019-02-06T06:10:27.212Z,7.43
2019-02-06T06:13:08.152Z,7.40
2019-02-06T06:15:48.943Z,7.27
2019-02-06T06:18:29.727Z,7.33
2019-02-06T06:21:10.604Z,8.17
2019-02-06T06:23:51.631Z,9.67
2019-02-06T06:26:32.565Z,8.23
2019-02-06T06:29:13.799Z,7.60
2019-02-06T06:31:54.683Z,9.40
2019-02-06T06:34:35.412Z,8.00
2019-02-06T06:37:16.345Z,7.57
2019-02-06T06:39:57.083Z,7.27
2019-02-06T06:42:38.061Z,6.67
2019-02-06T06:45:18.862Z,7.53
2019-02-06T06:47:59.652Z,8.77
2019-02-06T06:50:40.549Z,7.17
2019-02-06T06:53:21.585Z,7.10
2019-02-06T06:56:02.421Z,7.17
2019-02-06T06:58:43.234Z,7.77
2019-02-06T07:01:24.229Z,7.23
2019-02-06T07:04:05.107Z,7.30
2019-02-06T07:06:46.585Z,8.20
2019-02-06T07:09:27.303Z,7.30
2019-02-06T07:12:08.191Z,7.13
2019-02-06T07:14:48.899Z,7.33
2019-02-06T07:17:30.201Z,7.40
2019-02-06T07:20:11.408Z,6.63
2019-02-06T07:22:52.267Z,6.63
2019-02-06T07:25:33.136Z,6.93
2019-02-06T07:28:13.955Z,7.00
2019-02-06T07:30:54.919Z,7.40
2019-02-06T07:33:35.756Z,7.03
2019-02-06T07:36:16.694Z,6.70
2019-02-06T07:38:57.543Z,7.10
2019-02-06T07:41:38.619Z,7.70
2019-02-06T07:44:19.280Z,7.33
2019-02-06T07:47:00.433Z,6.93
2019-02-06T07:49:41.145Z,7.10
2019-02-06T07:52:21.921Z,6.97
2019-02-06T07:55:02.815Z,6.90
2019-02-06T07:57:43.528Z,7.33
2019-02-06T08:00:24.666Z,7.67
2019-02-06T08:03:05.955Z,7.53
2019-02-06T08:05:46.916Z,7.00
2019-02-06T08:08:35.740Z,6.83
2019-02-06T08:11:10.316Z,6.80
2019-02-06T08:13:51.047Z,6.67
2019-02-06T08:16:32.037Z,7.17
2019-02-06T08:19:12.945Z,7.13
2019-02-06T08:21:53.931Z,7.20
2019-02-06T08:24:34.783Z,7.33
2019-02-06T08:27:15.991Z,7.60
2019-02-06T08:29:56.760Z,8.00
2019-02-06T08:32:38.077Z,7.60
2019-02-06T08:35:18.635Z,7.00
2019-02-06T08:37:59.318Z,6.47
2019-02-06T08:40:40.329Z,6.77
2019-02-06T08:43:21.368Z,7.90
2019-02-06T08:46:03.011Z,7.90
2019-02-06T08:48:43.469Z,6.77
2019-02-06T08:51:24.148Z,7.03
2019-02-06T08:54:05.293Z,6.77
2019-02-06T08:56:46.095Z,7.00
2019-02-06T08:59:27.094Z,6.43
2019-02-06T09:02:07.786Z,7.30
2019-02-06T09:04:55.508Z,6.97
2019-02-06T09:07:31.404Z,7.13
2019-02-06T09:10:13.378Z,7.33
2019-02-06T09:12:54.010Z,7.17
2019-02-06T09:15:35.332Z,7.50
2019-02-06T09:18:16.157Z,6.57
2019-02-06T09:20:57.484Z,6.87
2019-02-06T09:23:38.160Z,6.20
2019-02-06T09:26:18.966Z,7.17
2019-02-06T09:28:59.832Z,6.03
2019-02-06T09:31:40.796Z,7.10
2019-02-06T09:34:21.682Z,6.73
2019-02-06T09:37:05.036Z,6.63
2019-02-06T09:39:45.714Z,6.93
2019-02-06T09:42:26.622Z,6.83
2019-02-06T09:45:07.538Z,6.50
2019-02-06T09:47:48.268Z,6.37
2019-02-06T09:50:29.212Z,6.53
2019-02-06T09:53:09.913Z,6.83
2019-02-06T09:55:53.187Z,7.27
2019-02-06T09:58:33.370Z,7.60
2019-02-06T10:01:14.478Z,6.70
2019-02-06T10:03:55.798Z,6.93
2019-02-06T10:06:36.561Z,6.87
2019-02-06T10:09:23.031Z,6.33
2019-02-06T10:11:59.500Z,6.63
2019-02-06T10:14:39.902Z,6.83
2019-02-06T10:17:22.458Z,6.73
2019-02-06T10:20:02.985Z,7.10
2019-02-06T10:22:44.144Z,6.63
2019-02-06T10:25:25.250Z,6.77
2019-02-06T10:28:06.328Z,6.20
2019-02-06T10:30:47.312Z,6.43
2019-02-06T10:33:28.272Z,6.03
2019-02-06T10:36:09.138Z,6.30
2019-02-06T10:38:50.304Z,6.17
2019-02-06T10:41:31.094Z,7.07
2019-02-06T10:44:12.139Z,6.30
2019-02-06T10:46:53.329Z,6.70
2019-02-06T10:49:34.239Z,6.63
2019-02-06T10:52:15.480Z,5.70
2019-02-06T10:54:56.478Z,6.33
2019-02-06T10:57:37.409Z,6.87
2019-02-06T11:00:18.320Z,6.33
2019-02-06T11:02:58.895Z,6.20
2019-02-06T11:05:40.004Z,6.07
2019-02-06T11:08:20.653Z,6.47
2019-02-06T11:11:01.798Z,6.53
2019-02-06T11:13:42.676Z,6.37
2019-02-06T11:16:23.450Z,6.67
2019-02-06T11:19:04.523Z,6.17
2019-02-06T11:21:45.894Z,6.70
2019-02-06T11:24:26.945Z,5.93
2019-02-06T11:27:07.401Z,6.17
2019-02-06T11:29:48.497Z,6.17
2019-02-06T11:32:29.532Z,7.07
2019-02-06T11:35:10.571Z,6.73
2019-02-06T11:37:51.438Z,6.10
2019-02-06T11:40:32.335Z,5.90
2019-02-06T11:43:13.230Z,5.83
2019-02-06T11:45:54.209Z,6.23
2019-02-06T11:48:35.480Z,6.67
2019-02-06T11:51:16.389Z,6.23
2019-02-06T11:53:57.171Z,6.40
2019-02-06T11:56:37.901Z,6.60
2019-02-06T11:59:18.785Z,6.03
2019-02-06T12:01:59.507Z,5.67
2019-02-06T12:04:40.265Z,6.50
2019-02-06T12:07:21.474Z,5.97
2019-02-06T12:10:09.323Z,5.87
2019-02-06T12:12:45.197Z,5.73
2019-02-06T12:15:26.039Z,6.23
2019-02-06T12:18:06.922Z,6.70
2019-02-06T12:20:47.401Z,7.03
2019-02-06T12:23:32.304Z,6.33
2019-02-06T12:26:10.280Z,6.07
2019-02-06T12:28:51.243Z,5.73
2019-02-06T12:31:32.071Z,5.87
2019-02-06T12:34:12.916Z,5.47
2019-02-06T12:36:54.138Z,5.87
2019-02-06T12:39:35.021Z,5.83
2019-02-06T12:42:16.309Z,6.50
2019-02-06T12:44:58.942Z,5.70
2019-02-06T12:47:40.052Z,5.97
2019-02-06T12:50:20.826Z,5.83
2019-02-06T12:53:01.726Z,5.53
2019-02-06T12:55:42.983Z,5.37
2019-02-06T12:58:26.113Z,5.43
2019-02-06T13:01:06.145Z,5.83
2019-02-06T13:03:46.952Z,6.23
2019-02-06T13:06:27.737Z,5.93
2019-02-06T13:09:08.587Z,6.47
2019-02-06T13:11:49.360Z,5.80
2019-02-06T13:14:30.707Z,5.23
2019-02-06T13:17:11.626Z,5.37
2019-02-06T13:19:52.477Z,5.30
2019-02-06T13:22:33.311Z,5.10
2019-02-06T13:25:14.184Z,5.97
2019-02-06T13:27:55.549Z,5.10
2019-02-06T13:30:36.735Z,5.27
2019-02-06T13:33:17.460Z,10.00
2019-02-06T13:35:58.757Z,5.93
2019-02-06T13:38:39.991Z,6.23
2019-02-06T13:41:21.099Z,8.83
2019-02-06T13:44:02.711Z,7.27
2019-02-06T13:46:53.026Z,7.40
2019-02-06T13:49:26.953Z,8.53
2019-02-06T13:52:07.927Z,6.50
2019-02-06T13:54:48.444Z,5.83
2019-02-06T13:57:33.739Z,5.50
2019-02-06T14:00:12.449Z,6.67
2019-02-06T14:02:54.265Z,5.67
2019-02-06T14:05:35.424Z,5.53
2019-02-06T14:08:15.872Z,7.80
2019-02-06T14:11:00.738Z,9.93
2019-02-06T14:13:39.560Z,22.57
2019-02-06T14:16:20.691Z,19.60
2019-02-06T14:19:02.397Z,15.57
2019-02-06T14:21:43.703Z,11.73
2019-02-06T14:24:24.679Z,6.57
2019-02-06T14:27:05.565Z,8.07
2019-02-06T14:29:46.563Z,10.43
2019-02-06T14:32:27.644Z,18.10
2019-02-06T14:35:08.542Z,12.13
2019-02-06T14:37:49.384Z,13.07
2019-02-06T14:40:30.444Z,7.33
2019-02-06T14:43:12.049Z,5.47
2019-02-06T14:46:19.642Z,4.70
2019-02-06T14:49:27.296Z,5.47
2019-02-06T14:52:35.983Z,10.67
2019-02-06T14:55:43.384Z,13.47
2019-02-06T14:58:46.206Z,9.67
2019-02-06T15:01:54.509Z,7.30
2019-02-06T15:04:35.851Z,5.30
2019-02-06T15:07:16.705Z,7.23
2019-02-06T15:09:57.446Z,5.63
2019-02-06T15:12:38.490Z,5.77
2019-02-06T15:15:21.239Z,4.80
2019-02-06T15:18:02.533Z,6.00
2019-02-06T15:20:43.392Z,4.30
2019-02-06T15:23:32.486Z,5.37
2019-02-06T15:26:07.425Z,4.57
2019-02-06T15:28:48.544Z,4.10
2019-02-06T15:31:29.440Z,4.70
2019-02-06T15:34:10.791Z,3.97
2019-02-06T15:36:51.370Z,5.23
2019-02-06T15:39:32.296Z,5.37
2019-02-06T15:42:12.981Z,6.23
2019-02-06T15:44:53.743Z,6.27
2019-02-06T15:47:34.634Z,4.73
2019-02-06T15:50:26.221Z,4.87
2019-02-06T15:52:58.864Z,6.73
2019-02-06T15:55:39.996Z,4.17
2019-02-06T15:58:21.048Z,4.10
2019-02-06T16:01:01.892Z,4.10
2019-02-06T16:04:01.916Z,4.07
2019-02-06T16:06:50.892Z,25.80
2019-02-06T16:09:33.736Z,27.80
2019-02-06T16:12:14.516Z,6.83
2019-02-06T16:14:55.988Z,6.40
2019-02-06T16:17:36.640Z,5.63
2019-02-06T16:20:17.994Z,9.43
2019-02-06T16:22:59.111Z,7.60
2019-02-06T16:25:39.962Z,9.07
2019-02-06T16:28:21.030Z,58.17
2019-02-06T16:31:02.119Z,55.67
2019-02-06T16:33:42.617Z,39.83
2019-02-06T16:36:23.484Z,23.27
2019-02-06T16:39:05.290Z,5.83
2019-02-06T16:41:53.134Z,9.60
2019-02-06T16:44:28.792Z,9.57
2019-02-06T16:47:09.764Z,7.23
2019-02-06T16:49:50.630Z,5.40
2019-02-06T16:52:31.466Z,12.23
2019-02-06T16:55:12.223Z,13.20
2019-02-06T16:57:52.808Z,8.30
2019-02-06T17:00:33.435Z,17.50
2019-02-06T17:03:14.141Z,16.67
2019-02-06T17:05:54.970Z,21.13
2019-02-06T17:08:35.791Z,12.53
2019-02-06T17:11:17.082Z,18.30
2019-02-06T17:13:57.672Z,16.03
2019-02-06T17:16:38.706Z,26.37
2019-02-06T17:19:19.761Z,18.67
2019-02-06T17:22:00.666Z,13.50
2019-02-06T17:24:41.638Z,18.43
2019-02-06T17:27:22.368Z,15.20
2019-02-06T17:30:03.657Z,16.40
2019-02-06T17:32:45.564Z,11.03
2019-02-06T17:35:26.837Z,13.03
2019-02-06T17:38:07.937Z,9.30
2019-02-06T17:40:48.952Z,12.87
2019-02-06T17:43:29.850Z,17.30
2019-02-06T17:46:10.813Z,11.17
2019-02-06T17:48:51.933Z,12.57
2019-02-06T17:51:32.849Z,13.03
2019-02-06T17:54:13.731Z,10.40
2019-02-06T17:56:54.596Z,11.23
2019-02-06T17:59:35.876Z,13.93
2019-02-06T18:02:16.526Z,10.20
2019-02-06T18:04:57.320Z,28.67
2019-02-06T18:07:38.202Z,5.47
2019-02-06T18:10:18.702Z,11.60
2019-02-06T18:12:59.151Z,16.93
2019-02-06T18:18:22.793Z,8.20
2019-02-06T18:21:03.267Z,15.67
2019-02-06T18:23:44.409Z,13.77
2019-02-06T18:26:25.395Z,11.17
2019-02-06T18:29:06.815Z,14.77
2019-02-06T18:31:35.669Z,14.10
2019-02-06T18:34:23.801Z,8.63
2019-02-06T18:37:12.015Z,10.37
2019-02-06T18:40:00.327Z,12.60
2019-02-06T18:42:48.448Z,9.87
2019-02-06T18:45:36.509Z,16.57
2019-02-06T18:48:24.777Z,9.73
2019-02-06T18:51:07.939Z,12.40
2019-02-06T18:53:48.868Z,10.23
2019-02-06T18:56:29.791Z,11.23
2019-02-06T18:59:10.564Z,10.57
2019-02-06T19:01:52.053Z,12.63
2019-02-06T19:04:32.577Z,13.77
2019-02-06T19:07:13.578Z,10.80
2019-02-06T19:09:55.029Z,13.63
2019-02-06T19:12:35.615Z,16.83
2019-02-06T19:15:16.582Z,17.47
2019-02-06T19:17:57.378Z,11.17
2019-02-06T19:20:38.469Z,12.67
2019-02-06T19:23:19.278Z,9.37
2019-02-06T19:26:00.029Z,6.80
2019-02-06T19:28:40.821Z,10.83
2019-02-06T19:31:21.414Z,9.13
2019-02-06T19:34:02.594Z,9.87
2019-02-06T19:36:43.710Z,8.93
2019-02-06T19:39:22.903Z,7.40
2019-02-06T19:42:11.109Z,6.50
2019-02-06T19:44:59.392Z,6.47
2019-02-06T19:47:47.671Z,6.20
2019-02-06T19:50:30.542Z,9.40
2019-02-06T19:53:11.597Z,6.30
2019-02-06T19:55:52.655Z,6.97
2019-02-06T19:58:33.412Z,10.00
2019-02-06T20:01:14.484Z,10.70
2019-02-06T20:03:55.582Z,6.17
2019-02-06T20:06:36.459Z,8.30
2019-02-06T20:09:17.018Z,5.87
2019-02-06T20:11:59.686Z,5.43
2019-02-06T20:14:40.538Z,5.70
2019-02-06T20:17:21.773Z,5.53
2019-02-06T20:20:02.636Z,6.07
2019-02-06T20:22:43.687Z,5.27
2019-02-06T20:25:24.693Z,5.37
2019-02-06T20:28:05.742Z,5.37
2019-02-06T20:30:46.783Z,6.60
2019-02-06T20:33:27.725Z,5.53
2019-02-06T20:36:08.447Z,6.73
2019-02-06T20:38:51.911Z,5.47
2019-02-06T20:41:31.668Z,5.70
2019-02-06T20:44:12.571Z,5.60
2019-02-06T20:46:55.801Z,6.60
2019-02-06T20:49:35.975Z,6.07
2019-02-06T20:52:16.673Z,5.83
2019-02-06T20:54:57.601Z,5.50
2019-02-06T20:57:41.120Z,6.07
2019-02-06T21:00:21.453Z,5.70
2019-02-06T21:03:02.456Z,6.10
2019-02-06T21:05:43.440Z,5.77
2019-02-06T21:08:24.615Z,5.90
2019-02-06T21:11:05.039Z,5.50
2019-02-06T21:13:45.751Z,5.47
2019-02-06T21:16:26.805Z,5.23
2019-02-06T21:19:07.867Z,5.17
2019-02-06T21:21:49.059Z,6.60
2019-02-06T21:24:29.864Z,7.53
2019-02-06T21:27:10.881Z,6.10
2019-02-06T21:29:51.952Z,5.83
2019-02-06T21:32:32.494Z,5.73
2019-02-06T21:35:13.420Z,5.67
2019-02-06T21:37:54.375Z,5.57
2019-02-06T21:40:35.431Z,5.47
2019-02-06T21:43:16.367Z,5.83
2019-02-06T21:45:57.310Z,8.60
2019-02-06T21:48:38.414Z,5.80
2019-02-06T21:51:19.294Z,5.37
2019-02-06T21:53:59.960Z,5.60
2019-02-06T21:56:40.966Z,5.90
2019-02-06T21:59:21.707Z,5.43
2019-02-06T22:02:02.645Z,6.23
2019-02-06T22:04:43.455Z,5.47
2019-02-06T22:07:24.399Z,26.40
2019-02-06T22:10:05.212Z,17.43
2019-02-06T22:12:45.947Z,28.27
2019-02-06T22:15:26.737Z,27.23
2019-02-06T22:18:07.593Z,12.73
2019-02-06T22:20:48.456Z,27.33
2019-02-06T22:23:29.395Z,14.40
2019-02-06T22:26:10.355Z,15.50
2019-02-06T22:28:51.332Z,14.70
2019-02-06T22:31:32.425Z,21.23
2019-02-06T22:34:13.343Z,15.43
2019-02-06T22:36:54.780Z,24.60
2019-02-06T22:39:35.278Z,16.47
2019-02-06T22:42:15.946Z,14.87
2019-02-06T22:44:57.292Z,13.33
2019-02-06T22:47:38.326Z,10.57
2019-02-06T22:50:19.204Z,9.63
2019-02-06T22:52:59.893Z,11.73
2019-02-06T22:55:40.388Z,16.00
2019-02-06T22:58:21.432Z,10.43
2019-02-06T23:01:01.973Z,6.33
2019-02-06T23:03:43.173Z,7.50
2019-02-06T23:06:24.204Z,8.30
2019-02-06T23:09:05.161Z,6.30
2019-02-06T23:11:46.375Z,8.37
2019-02-06T23:14:26.898Z,6.77
2019-02-06T23:17:07.451Z,10.83
2019-02-06T23:19:48.467Z,9.63
2019-02-06T23:22:29.280Z,9.73
2019-02-06T23:25:10.126Z,11.10
2019-02-06T23:27:51.135Z,9.07
2019-02-06T23:30:32.078Z,7.33
2019-02-06T23:33:13.329Z,8.13
2019-02-06T23:35:53.726Z,7.00
2019-02-06T23:38:34.853Z,8.90
2019-02-06T23:41:15.649Z,9.60
2019-02-06T23:43:56.403Z,7.67
2019-02-06T23:46:37.692Z,7.43
2019-02-06T23:49:18.798Z,7.60
2019-02-06T23:51:59.652Z,7.50
2019-02-06T23:54:40.808Z,7.67
2019-02-06T23:57:21.386Z,7.90
